Time;durP1;ratioP1;P1;durP2;ratioP2;P2;SDS_P1;SDS_P2;PMS_P1;PMS_P2;Temp;Humidity;BMP_temperature;BMP_pressure;BME280_temperature;BME280_humidity;BME280_pressure;Samples;Min_cycle;Max_cycle;Signal;HPM_P1;HPM_P2
2023/06/22 00:05:31;;;;;;;4.22;2.75;;;;;;;20.18;67.58;97191.00;10502678;28;20064;-55
2023/06/22 00:10:50;;;;;;;11.07;3.67;;;;;;;20.17;67.64;97201.03;10516611;28;20087;-55
2023/06/22 00:16:10;;;;;;;3.67;2.88;;;;;;;20.16;67.56;97199.41;10508789;28;20036;-54
2023/06/22 00:21:30;;;;;;;11.02;3.15;;;;;;;20.16;67.39;97194.00;10516169;28;20442;-55
2023/06/22 00:26:50;;;;;;;3.25;2.80;;;;;;;20.15;67.37;97181.59;10516070;28;20041;-55
2023/06/22 00:32:09;;;;;;;4.65;3.15;;;;;;;20.15;67.23;97192.44;10515757;28;20044;-55
2023/06/22 00:37:29;;;;;;;3.53;2.60;;;;;;;20.15;67.22;97204.03;10515577;28;20052;-55
2023/06/22 00:42:48;;;;;;;4.38;2.70;;;;;;;20.15;67.23;97181.59;10515456;28;20102;-55
2023/06/22 00:48:08;;;;;;;4.53;2.95;;;;;;;20.15;67.15;97178.91;10515015;28;20106;-55
2023/06/22 00:53:27;;;;;;;4.43;3.00;;;;;;;20.15;67.12;97181.59;10514973;28;20085;-55
2023/06/22 00:58:47;;;;;;;4.38;3.10;;;;;;;20.14;67.16;97172.69;10514801;28;20066;-55
2023/06/22 01:04:07;;;;;;;4.30;3.05;;;;;;;20.14;66.83;97158.38;10506249;28;20048;-55
2023/06/22 01:09:32;;;;;;;5.32;2.70;;;;;;;20.12;66.67;97155.19;10514457;28;20381;-55
2023/06/22 01:15:02;;;;;;;3.35;2.85;;;;;;;20.12;66.65;97155.97;10499119;28;20044;-55
2023/06/22 01:20:22;;;;;;;3.28;2.83;;;;;;;20.13;66.55;97148.66;10498807;28;20040;-55
2023/06/22 01:25:48;;;;;;;3.85;2.60;;;;;;;20.11;66.42;97149.00;10498496;28;20059;-55
2023/06/22 01:31:08;;;;;;;3.28;2.85;;;;;;;20.11;66.42;97138.16;10513443;28;20045;-54
2023/06/22 01:36:30;;;;;;;3.95;2.55;;;;;;;20.10;66.35;97131.16;10498425;28;20044;-55
2023/06/22 01:41:50;;;;;;;4.18;2.78;;;;;;;20.10;66.39;97143.88;10512972;28;20041;-55
2023/06/22 01:47:10;;;;;;;7.95;2.90;;;;;;;20.10;66.18;97146.59;10512875;28;20040;-55
2023/06/22 01:52:30;;;;;;;4.88;2.83;;;;;;;20.10;66.15;97157.41;10512671;28;20887;-55
2023/06/22 01:57:49;;;;;;;6.07;3.17;;;;;;;20.09;66.12;97172.84;10512381;28;20040;-55
2023/06/22 02:03:12;;;;;;;4.68;2.90;;;;;;;20.08;66.02;97170.47;10506442;28;20059;-55
2023/06/22 02:08:41;;;;;;;6.18;3.00;;;;;;;20.07;65.79;97180.50;10511915;28;20036;-55
2023/06/22 02:14:01;;;;;;;4.05;3.22;;;;;;;20.07;65.69;97179.69;10482345;28;20492;-55
2023/06/22 02:19:25;;;;;;;4.72;3.10;;;;;;;20.08;65.59;97173.16;10482591;28;20036;-55
2023/06/22 02:24:46;;;;;;;5.03;3.08;;;;;;;20.07;65.59;97177.78;10497819;28;20048;-54
2023/06/22 02:30:11;;;;;;;4.57;3.15;;;;;;;20.06;65.53;97170.00;10511317;28;20044;-55
2023/06/22 02:35:35;;;;;;;5.63;3.45;;;;;;;20.05;65.41;97165.69;10496054;28;20044;-55
2023/06/22 02:40:54;;;;;;;5.93;3.40;;;;;;;20.05;65.31;97161.09;10510974;28;20503;-55
2023/06/22 02:46:14;;;;;;;4.55;3.20;;;;;;;20.05;65.31;97168.38;10510753;28;20530;-55
2023/06/22 02:51:35;;;;;;;6.15;3.28;;;;;;;20.04;65.13;97158.69;10495397;28;20032;-55
2023/06/22 02:56:55;;;;;;;3.67;3.08;;;;;;;20.03;64.85;97157.91;10510380;28;20094;-55
2023/06/22 03:02:16;;;;;;;6.22;3.70;;;;;;;20.03;64.80;97146.28;10491972;28;20412;-55
2023/06/22 03:07:36;;;;;;;4.88;3.22;;;;;;;20.02;64.73;97150.09;10495209;28;20040;-55
2023/06/22 03:12:56;;;;;;;4.65;3.38;;;;;;;20.01;64.50;97154.69;10495183;28;20040;-55
2023/06/22 03:18:16;;;;;;;4.35;2.90;;;;;;;20.00;64.33;97155.03;10510017;28;20036;-55
2023/06/22 03:23:36;;;;;;;6.60;3.17;;;;;;;20.01;64.37;97167.44;10510686;28;20094;-55
2023/06/22 03:28:55;;;;;;;4.18;2.70;;;;;;;20.00;64.20;97166.63;10518418;28;20408;-55
2023/06/22 03:34:14;;;;;;;2.63;2.33;;;;;;;20.00;64.33;97163.16;10518217;28;20451;-55
2023/06/22 03:39:34;;;;;;;3.03;2.50;;;;;;;20.00;64.52;97168.56;10517998;28;20037;-55
2023/06/22 03:44:54;;;;;;;2.60;2.40;;;;;;;19.98;64.55;97171.56;10517733;28;20093;-55
2023/06/22 03:50:14;;;;;;;3.22;2.30;;;;;;;19.99;64.63;97167.75;10517605;28;20040;-55
2023/06/22 03:55:34;;;;;;;3.22;2.20;;;;;;;19.99;64.72;97166.94;10517308;28;20102;-54
2023/06/22 04:00:53;;;;;;;2.67;2.03;;;;;;;19.99;64.77;97143.41;10517066;28;20051;-55
2023/06/22 04:06:13;;;;;;;3.15;2.30;;;;;;;19.98;64.95;97133.72;10516933;28;20040;-55
2023/06/22 04:11:32;;;;;;;6.88;4.50;;;;;;;19.74;67.64;97137.69;10503931;28;20048;-49
2023/06/22 04:16:51;;;;;;;6.28;4.30;;;;;;;19.49;68.99;97133.81;10516551;28;20047;-47
2023/06/22 04:22:11;;;;;;;7.97;4.63;;;;;;;19.52;69.00;97145.88;10502065;28;20041;-48
2023/06/22 04:27:31;;;;;;;7.25;5.20;;;;;;;19.42;69.62;97149.66;10516083;28;20048;-50
2023/06/22 04:32:57;;;;;;;5.40;4.20;;;;;;;19.35;70.41;97155.53;10515682;28;20507;-48
2023/06/22 04:38:16;;;;;;;5.22;4.10;;;;;;;19.32;71.36;97155.38;10515293;28;20037;-50
2023/06/22 04:43:36;;;;;;;5.25;3.92;;;;;;;19.32;72.45;97149.97;10515220;28;20052;-48
2023/06/22 04:48:55;;;;;;;4.63;4.03;;;;;;;19.36;73.52;97150.94;10515328;28;20047;-49
2023/06/22 04:54:14;;;;;;;6.32;4.50;;;;;;;19.42;72.61;97155.06;10515141;28;20093;-49
2023/06/22 04:59:34;;;;;;;6.35;4.13;;;;;;;19.56;71.73;97155.75;10514949;28;20043;-52
2023/06/22 05:04:56;;;;;;;3.95;3.13;;;;;;;19.66;70.37;97168.19;10504231;28;20049;-50
2023/06/22 05:10:16;;;;;;;14.88;6.13;;;;;;;19.74;69.29;97183.63;10514458;28;20477;-49
2023/06/22 05:15:39;;;;;;;23.27;7.45;;;;;;;19.78;68.52;97180.28;10514281;28;20436;-50
2023/06/22 05:20:59;;;;;;;22.88;7.63;;;;;;;19.82;68.10;97189.38;10514039;28;20040;-50
2023/06/22 05:26:20;;;;;;;17.58;7.28;;;;;;;19.84;67.71;97184.47;10513576;28;20089;-51
2023/06/22 05:31:40;;;;;;;18.40;7.22;;;;;;;19.85;67.54;97184.13;10513617;28;20045;-49
2023/06/22 05:37:00;;;;;;;18.73;6.65;;;;;;;19.87;67.42;97192.72;10513305;28;20048;-50
2023/06/22 05:42:19;;;;;;;18.83;6.47;;;;;;;19.89;67.31;97190.47;10513082;28;20040;-51
2023/06/22 05:47:39;;;;;;;19.65;6.35;;;;;;;19.90;67.29;97191.28;10512101;28;20051;-51
2023/06/22 05:52:58;;;;;;;14.20;6.35;;;;;;;19.90;67.29;97202.91;10512786;28;20052;-50
2023/06/22 05:58:17;;;;;;;12.15;5.72;;;;;;;19.91;67.16;97219.91;10512660;28;20041;-50
2023/06/22 06:03:40;;;;;;;14.60;5.72;;;;;;;19.92;67.19;97224.22;10505184;28;20105;-50
2023/06/22 06:09:00;;;;;;;11.90;5.57;;;;;;;19.92;67.03;97216.91;10498421;28;20052;-52
2023/06/22 06:14:20;;;;;;;15.30;5.72;;;;;;;19.92;67.12;97219.59;10511799;28;20048;-51
2023/06/22 06:19:40;;;;;;;12.10;5.88;;;;;;;19.94;67.12;97225.50;10511601;28;20036;-51
2023/06/22 06:24:59;;;;;;;12.13;5.50;;;;;;;19.94;67.08;97211.97;10511281;28;20040;-51
2023/06/22 06:30:18;;;;;;;12.07;5.25;;;;;;;19.94;67.11;97214.66;10511357;28;20098;-51
2023/06/22 06:35:38;;;;;;;12.80;5.35;;;;;;;19.95;66.99;97210.06;10511137;28;20052;-51
2023/06/22 06:40:59;;;;;;;10.48;5.30;;;;;;;19.95;67.00;97210.88;10511008;28;20041;-52
2023/06/22 06:46:19;;;;;;;12.68;5.68;;;;;;;19.94;67.07;97203.84;10497318;28;20048;-51
2023/06/22 06:51:38;;;;;;;12.23;5.10;;;;;;;19.95;67.06;97200.06;10510755;28;20048;-51
2023/06/22 06:56:58;;;;;;;10.38;5.50;;;;;;;19.96;67.06;97195.44;10510318;28;20040;-50
2023/06/22 07:02:17;;;;;;;9.07;4.75;;;;;;;19.97;67.00;97196.22;10506823;28;20106;-52
2023/06/22 07:07:37;;;;;;;8.50;4.78;;;;;;;19.97;66.93;97188.91;10497014;28;20049;-51
2023/06/22 07:12:57;;;;;;;10.55;4.85;;;;;;;19.98;66.95;97187.00;10510293;28;20454;-51
2023/06/22 07:18:16;;;;;;;9.23;4.85;;;;;;;19.97;66.95;97175.38;10496530;28;20044;-51
2023/06/22 07:23:35;;;;;;;7.80;4.43;;;;;;;19.98;67.04;97174.28;10509833;28;20041;-51
2023/06/22 07:28:55;;;;;;;6.25;4.10;;;;;;;19.98;66.93;97176.19;10496617;28;20083;-52
2023/06/22 07:34:14;;;;;;;7.22;4.22;;;;;;;19.99;66.93;97172.38;10509750;28;20400;-49
2023/06/22 07:39:34;;;;;;;7.55;4.47;;;;;;;19.99;67.04;97169.66;10496533;28;20057;-51
2023/06/22 07:44:54;;;;;;;9.27;4.78;;;;;;;19.99;67.03;97158.84;10509547;28;20381;-50
2023/06/22 07:50:14;;;;;;;9.43;4.57;;;;;;;19.99;67.01;97161.53;10509401;28;20041;-50
2023/06/22 07:55:33;;;;;;;7.63;3.97;;;;;;;19.98;66.95;97152.66;10509543;28;20051;-52
2023/06/22 08:00:52;;;;;;;6.05;4.20;;;;;;;19.98;66.93;97149.94;10509183;28;20041;-51
2023/06/22 08:06:12;;;;;;;9.38;4.35;;;;;;;19.99;66.90;97142.63;10509213;28;20040;-51
2023/06/22 08:11:32;;;;;;;7.50;4.32;;;;;;;19.99;66.96;97158.84;10513043;28;20373;-51
2023/06/22 08:16:52;;;;;;;7.13;4.18;;;;;;;20.00;66.92;97142.31;10516369;28;20404;-50
2023/06/22 08:22:11;;;;;;;8.35;4.15;;;;;;;20.01;66.94;97140.38;10501036;28;20476;-53
2023/06/22 08:27:34;;;;;;;7.45;4.10;;;;;;;20.00;66.93;97131.47;10516073;28;20036;-51
2023/06/22 08:32:56;;;;;;;7.53;4.10;;;;;;;20.00;67.06;97123.38;10515935;28;20048;-50
2023/06/22 08:38:18;;;;;;;6.55;4.03;;;;;;;20.01;66.87;97116.03;10515761;28;20059;-49
2023/06/22 08:43:38;;;;;;;9.05;4.60;;;;;;;20.00;66.96;97117.97;10515493;28;20040;-51
2023/06/22 08:48:57;;;;;;;6.28;3.90;;;;;;;20.00;67.04;97114.47;10515480;28;20400;-51
2023/06/22 08:54:17;;;;;;;7.50;4.10;;;;;;;20.01;66.92;97121.44;10515268;28;20045;-51
2023/06/22 08:59:36;;;;;;;6.95;3.85;;;;;;;20.02;66.91;97107.63;10515073;28;20162;-51
2023/06/22 09:04:57;;;;;;;6.63;4.07;;;;;;;20.03;66.85;97113.81;10504100;28;20458;-50
2023/06/22 09:10:17;;;;;;;6.57;4.10;;;;;;;20.01;66.96;97116.84;10514478;28;20489;-51
2023/06/22 09:15:36;;;;;;;6.13;3.83;;;;;;;20.01;66.93;97103.31;10514279;28;20040;-51
2023/06/22 09:20:56;;;;;;;6.45;3.65;;;;;;;20.03;66.93;97097.59;10514193;28;20056;-51
2023/06/22 09:26:15;;;;;;;6.72;3.88;;;;;;;20.01;66.82;97097.91;10512255;28;20507;-51
2023/06/22 09:31:35;;;;;;;5.43;3.50;;;;;;;20.03;66.99;97092.19;10513656;28;20041;-51
2023/06/22 09:36:55;;;;;;;4.55;3.40;;;;;;;20.02;66.94;97085.19;10513409;28;20045;-50
2023/06/22 09:42:14;;;;;;;5.07;3.45;;;;;;;20.02;66.93;97082.50;10513063;28;20040;-51
2023/06/22 09:47:34;;;;;;;7.00;3.80;;;;;;;20.02;66.96;97086.00;10512996;28;20094;-51
2023/06/22 09:52:54;;;;;;;4.25;3.30;;;;;;;20.03;66.91;97086.78;10512878;28;20036;-51
2023/06/22 09:58:14;;;;;;;5.18;3.22;;;;;;;20.02;66.96;97077.09;10512560;28;20048;-49
2023/06/22 10:03:33;;;;;;;6.75;3.50;;;;;;;20.03;66.98;97070.53;10505644;28;20052;-48
2023/06/22 10:08:52;;;;;;;5.65;3.20;;;;;;;20.03;66.97;97082.19;10512246;28;20032;-51
2023/06/22 10:14:12;;;;;;;6.28;3.75;;;;;;;20.03;66.97;97084.88;10497014;28;20048;-50
2023/06/22 10:19:31;;;;;;;5.43;3.30;;;;;;;20.03;67.07;97075.97;10511910;28;20067;-50
2023/06/22 10:24:50;;;;;;;5.32;3.40;;;;;;;20.03;66.91;97078.66;10511197;28;20541;-51
2023/06/22 10:30:12;;;;;;;4.38;3.35;;;;;;;20.03;66.87;97073.25;10511575;28;20040;-51
2023/06/22 10:35:31;;;;;;;6.30;3.40;;;;;;;20.03;66.87;97073.25;10495764;28;20053;-52
2023/06/22 10:40:51;;;;;;;5.50;3.38;;;;;;;20.05;67.00;97074.53;10511147;28;20385;-50
2023/06/22 10:46:10;;;;;;;5.88;3.33;;;;;;;20.04;67.00;97062.13;10482583;28;20122;-51
2023/06/22 10:51:31;;;;;;;5.65;3.53;;;;;;;20.04;66.96;97059.41;10510857;28;20052;-51
2023/06/22 10:56:50;;;;;;;5.40;3.40;;;;;;;20.05;67.06;97063.72;10510800;28;20504;-51
2023/06/22 11:02:10;;;;;;;6.45;3.38;;;;;;;20.05;66.96;97058.31;10492348;28;20048;-50
2023/06/22 11:07:30;;;;;;;4.95;3.15;;;;;;;20.04;66.84;97054.00;10497179;28;20052;-51
2023/06/22 11:12:49;;;;;;;3.92;3.00;;;;;;;20.04;67.01;97039.69;10510404;28;20419;-52
2023/06/22 11:18:09;;;;;;;5.10;3.20;;;;;;;20.04;67.05;97035.06;10510211;28;20412;-51
2023/06/22 11:23:28;;;;;;;4.78;3.00;;;;;;;20.05;66.97;97033.16;10509897;28;20036;-51
2023/06/22 11:28:48;;;;;;;5.00;3.20;;;;;;;20.06;66.98;97037.47;10509880;28;20044;-50
2023/06/22 11:34:07;;;;;;;5.97;3.28;;;;;;;20.05;67.11;97023.16;10509878;28;20385;-51
2023/06/22 11:39:27;;;;;;;4.10;2.80;;;;;;;20.06;66.96;97018.53;10509861;28;20044;-51
2023/06/22 11:44:46;;;;;;;3.92;2.85;;;;;;;20.06;67.01;97013.91;10510814;28;20480;-50
2023/06/22 11:50:06;;;;;;;4.35;3.22;;;;;;;20.06;67.07;97010.41;10504384;28;20055;-50
2023/06/22 11:55:26;;;;;;;5.07;3.13;;;;;;;20.06;66.99;96994.19;10488957;28;20102;-50
2023/06/22 12:00:45;;;;;;;4.65;3.10;;;;;;;20.06;67.03;97002.31;10517367;28;20041;-51
2023/06/22 12:06:04;;;;;;;3.88;2.80;;;;;;;20.07;67.05;97003.88;10503263;28;20512;-51
2023/06/22 12:11:23;;;;;;;3.53;3.10;;;;;;;20.06;67.07;97005.78;10516954;28;20443;-49
2023/06/22 12:16:43;;;;;;;3.97;2.90;;;;;;;20.07;66.89;96996.59;10516686;28;20044;-51
2023/06/22 12:22:03;;;;;;;3.90;2.97;;;;;;;20.07;67.01;96987.66;10501185;28;20036;-51
2023/06/22 12:27:23;;;;;;;3.95;2.95;;;;;;;20.08;67.00;96986.56;10516378;28;20047;-50
2023/06/22 12:32:43;;;;;;;3.15;2.70;;;;;;;20.07;67.02;96984.94;10502694;28;20048;-49
2023/06/22 12:38:03;;;;;;;4.30;3.10;;;;;;;20.07;67.04;96977.66;10515742;28;20102;-51
2023/06/22 12:43:23;;;;;;;3.53;2.60;;;;;;;20.08;67.04;96962.22;10515594;28;20036;-50
2023/06/22 12:48:42;;;;;;;3.70;2.55;;;;;;;20.09;67.09;96956.50;10515441;28;20040;-49
2023/06/22 12:54:02;;;;;;;4.30;2.70;;;;;;;20.10;67.29;96958.06;10515144;28;20045;-50
2023/06/22 12:59:22;;;;;;;4.40;2.78;;;;;;;20.11;67.25;96942.63;10514674;28;20036;-50
2023/06/22 13:04:42;;;;;;;4.72;3.10;;;;;;;20.12;67.46;96936.09;10504759;28;20060;-50
2023/06/22 13:10:03;;;;;;;4.05;3.40;;;;;;;20.11;67.31;96929.91;10514505;28;20041;-50
2023/06/22 13:15:22;;;;;;;4.38;3.20;;;;;;;20.12;67.30;96928.00;10514366;28;20040;-50
2023/06/22 13:20:42;;;;;;;3.40;2.90;;;;;;;20.11;67.42;96921.78;10500753;28;20053;-51
2023/06/22 13:26:01;;;;;;;3.88;2.60;;;;;;;20.11;67.30;96913.69;10513656;28;20407;-51
2023/06/22 13:31:21;;;;;;;3.10;2.80;;;;;;;20.12;67.30;96912.53;10513731;28;20600;-49
2023/06/22 13:36:41;;;;;;;3.25;2.70;;;;;;;20.13;67.38;96902.50;10513214;28;20055;-49
2023/06/22 13:42:01;;;;;;;3.17;2.83;;;;;;;20.13;67.37;96897.09;10513297;28;20036;-49
2023/06/22 13:47:20;;;;;;;3.42;2.65;;;;;;;20.12;67.30;96890.13;10513100;28;20098;-49
2023/06/22 13:52:39;;;;;;;3.00;2.70;;;;;;;20.14;67.30;96887.88;10512676;28;20041;-50
2023/06/22 13:57:59;;;;;;;4.85;2.85;;;;;;;20.12;67.30;96874.69;10512615;28;20044;-48
2023/06/22 14:03:18;;;;;;;3.75;2.50;;;;;;;20.12;67.13;96879.31;10506264;28;20052;-47
2023/06/22 14:08:37;;;;;;;2.95;2.63;;;;;;;20.12;67.12;96871.19;10511500;28;20480;-47
2023/06/22 14:13:57;;;;;;;4.50;2.53;;;;;;;20.12;66.94;96871.19;10512019;28;20051;-49
2023/06/22 14:19:18;;;;;;;3.20;2.70;;;;;;;20.11;66.78;96877.69;10511720;28;20543;-50
2023/06/22 14:24:37;;;;;;;4.18;2.80;;;;;;;20.11;66.86;96861.47;10511032;28;20071;-50
2023/06/22 14:29:57;;;;;;;3.60;2.92;;;;;;;20.12;66.82;96863.06;10511511;28;20489;-48
2023/06/22 14:35:17;;;;;;;4.05;2.95;;;;;;;20.10;66.89;96858.00;10511230;28;20040;-48
2023/06/22 14:40:36;;;;;;;3.63;2.95;;;;;;;20.10;66.83;96855.28;10511092;28;20045;-50
2023/06/22 14:45:55;;;;;;;3.75;2.90;;;;;;;20.10;66.74;96849.88;10510818;28;20094;-51
2023/06/22 14:51:15;;;;;;;5.50;2.72;;;;;;;20.11;66.82;96843.38;10510691;28;20037;-50
2023/06/22 14:56:35;;;;;;;6.57;2.83;;;;;;;20.12;66.91;96833.31;10510546;28;20090;-51
2023/06/22 15:10:14;;;;;;;5.97;3.78;;;;;;;20.13;66.87;96829.50;10426601;28;20053;-55
2023/06/22 15:15:34;;;;;;;17.88;3.95;;;;;;;20.14;67.15;96822.97;10447928;28;20045;-58
2023/06/22 15:21:01;;;;;;;6.75;3.25;;;;;;;20.15;67.21;96814.53;10467424;28;20033;-56
2023/06/22 15:26:20;;;;;;;5.75;3.90;;;;;;;20.18;67.44;96807.66;10463062;28;20051;-56
2023/06/22 15:31:40;;;;;;;7.55;4.40;;;;;;;20.18;67.87;96810.38;10455513;28;20046;-60
2023/06/22 15:37:00;;;;;;;7.72;4.30;;;;;;;20.20;67.86;96800.03;10448994;28;20106;-55
2023/06/22 15:42:19;;;;;;;11.73;4.88;;;;;;;20.21;68.31;96788.09;10437633;28;20052;-56
2023/06/22 15:53:16;;;;;;;8.00;4.90;;;;;;;20.24;68.29;96767.69;9934041;27;20103;-51
2023/06/22 15:58:36;;;;;;;8.27;4.85;;;;;;;20.23;68.36;96742.56;10137487;29;20049;-54
2023/06/22 16:03:56;;;;;;;7.03;4.53;;;;;;;20.23;68.00;96712.81;10129094;29;20049;-51
2023/06/22 16:17:37;;;;;;;5.40;4.82;;;;;;;20.21;67.65;96720.47;10113531;29;20131;-50
2023/06/22 16:22:56;;;;;;;5.10;4.60;;;;;;;20.20;67.79;96727.00;10132341;29;20044;-51
2023/06/22 16:28:16;;;;;;;6.20;5.13;;;;;;;20.22;67.88;96735.56;10127346;29;20074;-51
2023/06/22 16:40:54;;;;;;;9.23;4.72;;;;;;;20.40;68.90;96717.28;10100008;29;20513;-54
2023/06/22 16:46:14;;;;;;;9.10;4.55;;;;;;;20.36;68.37;96705.53;10113670;29;20051;-52
2023/06/22 16:51:34;;;;;;;9.55;4.22;;;;;;;20.31;68.34;96693.00;10105155;29;20060;-52
2023/06/22 16:56:53;;;;;;;7.57;4.72;;;;;;;20.31;68.32;96687.59;10115568;29;20057;-50
2023/06/22 17:02:19;;;;;;;7.88;4.80;;;;;;;20.30;68.33;96680.59;10137602;29;20557;-51
2023/06/22 17:07:40;;;;;;;8.38;5.00;;;;;;;20.29;67.99;96670.13;10151751;29;20041;-51
2023/06/22 17:13:02;;;;;;;5.68;4.80;;;;;;;20.28;68.29;96671.25;10139050;29;20088;-50
2023/06/22 17:18:25;;;;;;;5.68;4.43;;;;;;;20.28;68.21;96655.78;10136844;29;20041;-50
2023/06/22 17:23:46;;;;;;;9.07;4.72;;;;;;;20.32;68.68;96643.19;10150860;29;20044;-50
2023/06/22 17:29:08;;;;;;;10.32;4.70;;;;;;;20.32;68.56;96632.34;10150626;29;20041;-51
2023/06/22 17:34:29;;;;;;;6.88;4.05;;;;;;;20.31;68.39;96619.97;10150537;29;20057;-52
2023/06/22 17:39:53;;;;;;;9.27;4.90;;;;;;;20.31;68.53;96601.03;10150462;29;20493;-55
2023/06/22 17:45:23;;;;;;;8.75;5.10;;;;;;;20.33;68.82;96606.91;10149318;29;20076;-52
2023/06/22 17:50:42;;;;;;;14.25;6.30;;;;;;;20.33;68.99;96593.38;10143978;29;20084;-52
2023/06/22 17:56:02;;;;;;;11.55;5.22;;;;;;;20.33;69.29;96609.59;10137401;29;20056;-57
2023/06/22 18:01:35;;;;;;;11.32;5.30;;;;;;;20.34;69.23;96610.38;10149317;29;20041;-51
2023/06/22 18:06:55;;;;;;;9.45;5.30;;;;;;;20.34;69.13;96615.81;10149408;29;20445;-53
2023/06/22 18:12:15;;;;;;;8.52;5.55;;;;;;;20.33;69.05;96623.13;10135064;29;20048;-51
2023/06/22 18:17:35;;;;;;;7.55;4.95;;;;;;;20.33;69.22;96614.22;10134880;29;20112;-52
2023/06/22 18:22:55;;;;;;;9.55;5.28;;;;;;;20.33;69.15;96616.94;10148808;29;20045;-51
2023/06/22 18:28:14;;;;;;;5.20;4.55;;;;;;;20.33;69.11;96608.81;10148687;29;20100;-50
2023/06/22 18:33:34;;;;;;;8.35;4.78;;;;;;;20.34;69.33;96594.16;10134418;29;20052;-53
2023/06/22 18:38:59;;;;;;;8.15;5.00;;;;;;;20.37;69.54;96587.31;10148350;29;20401;-53
2023/06/22 18:44:26;;;;;;;10.98;5.00;;;;;;;20.37;69.96;96585.38;10135685;29;20053;-52
2023/06/22 18:49:48;;;;;;;9.02;5.03;;;;;;;20.40;69.45;96603.63;10144164;29;20056;-51
2023/06/22 18:55:11;;;;;;;7.80;5.25;;;;;;;20.39;67.22;96625.63;10147460;29;20052;-51
2023/06/22 19:00:31;;;;;;;9.40;5.47;;;;;;;20.32;65.52;96610.72;10145900;29;20052;-51
2023/06/22 19:05:51;;;;;;;19.15;6.05;;;;;;;20.30;66.03;96617.59;10145754;29;20056;-54
2023/06/22 19:11:12;;;;;;;6.47;5.10;;;;;;;20.30;66.30;96628.41;10134948;29;20131;-50
2023/06/22 19:16:32;;;;;;;7.03;5.50;;;;;;;20.30;66.35;96631.91;10147418;29;20048;-53
2023/06/22 19:21:59;;;;;;;10.77;6.40;;;;;;;20.31;66.38;96663.25;10147393;29;20040;-53
2023/06/22 19:27:19;;;;;;;8.90;5.65;;;;;;;20.31;66.64;96667.88;10147239;29;20048;-53
2023/06/22 19:32:39;;;;;;;8.27;5.57;;;;;;;20.32;66.90;96664.03;10147102;29;20060;-55
2023/06/22 19:37:58;;;;;;;6.80;5.53;;;;;;;20.32;66.90;96672.94;10147248;29;20040;-55
2023/06/22 19:43:18;;;;;;;9.48;5.68;;;;;;;20.32;67.07;96650.50;10146553;29;20100;-57
2023/06/22 19:48:39;;;;;;;6.85;5.15;;;;;;;20.32;67.09;96618.06;10145996;29;20048;-53
2023/06/22 19:54:09;;;;;;;6.65;5.40;;;;;;;20.33;67.19;96584.47;10146824;29;20056;-53
2023/06/22 19:59:29;;;;;;;6.05;5.38;;;;;;;20.33;67.32;96574.44;10146554;29;20055;-53
2023/06/22 20:04:49;;;;;;;7.28;5.53;;;;;;;20.34;67.18;96573.28;10146593;29;20045;-50
2023/06/22 20:10:17;;;;;;;8.73;5.45;;;;;;;20.33;67.39;96563.63;10154070;29;20100;-49
2023/06/22 20:15:41;;;;;;;;;;;;;;;20.33;67.68;96533.84;10154117;29;20476;-52
2023/06/22 20:21:00;;;;;;;7.95;6.22;;;;;;;20.38;68.76;96513.13;10153442;29;19976;-52
2023/06/22 20:26:20;;;;;;;38.03;23.85;;;;;;;20.42;69.09;96492.38;10153220;29;20046;-53
2023/06/22 20:31:39;;;;;;;32.00;19.25;;;;;;;20.41;69.00;96447.53;10138875;29;20049;-53
2023/06/22 20:36:59;;;;;;;22.23;12.90;;;;;;;20.42;69.34;96419.31;10152800;29;20444;-51
2023/06/22 20:42:18;;;;;;;15.93;9.90;;;;;;;20.44;69.60;96390.00;10152526;29;20073;-51
2023/06/22 20:47:40;;;;;;;10.02;8.13;;;;;;;20.45;69.79;96361.84;10152525;29;20405;-51
2023/06/22 20:53:03;;;;;;;9.85;6.57;;;;;;;20.50;69.70;96377.81;10140197;29;20053;-51
2023/06/22 20:58:22;;;;;;;12.15;7.18;;;;;;;20.49;69.58;96390.56;10151743;29;20512;-50
2023/06/22 21:03:43;;;;;;;13.02;6.25;;;;;;;20.49;69.87;96398.69;10151815;29;20056;-52
2023/06/22 21:09:03;;;;;;;13.77;6.63;;;;;;;20.48;69.83;96435.00;10151694;29;20094;-52
2023/06/22 21:14:22;;;;;;;8.48;6.47;;;;;;;20.48;69.72;96453.16;10151445;29;20044;-51
2023/06/22 21:19:41;;;;;;;11.20;6.53;;;;;;;20.48;69.81;96458.56;10137827;29;20048;-51
2023/06/22 21:25:12;;;;;;;10.95;7.10;;;;;;;20.46;69.51;96458.09;10138508;29;20124;-52
2023/06/22 21:30:31;;;;;;;11.57;6.80;;;;;;;20.43;69.51;96458.81;10150114;29;20041;-52
2023/06/22 21:35:51;;;;;;;10.07;6.78;;;;;;;20.43;69.12;96469.63;10140280;29;20053;-53
2023/06/22 21:41:10;;;;;;;9.55;6.57;;;;;;;20.43;68.94;96499.38;10111677;29;20052;-52
2023/06/22 21:46:29;;;;;;;10.25;7.50;;;;;;;20.43;68.86;96521.03;10111444;29;20049;-52
2023/06/22 21:51:49;;;;;;;9.50;6.32;;;;;;;20.41;68.71;96558.44;10102294;29;20116;-52
2023/06/22 21:57:08;;;;;;;11.63;7.00;;;;;;;20.41;68.59;96586.28;10114821;29;20552;-52
2023/06/22 22:02:27;;;;;;;9.82;6.72;;;;;;;20.41;68.55;96567.34;10137214;29;20128;-53
2023/06/22 22:07:47;;;;;;;8.88;6.80;;;;;;;20.41;68.61;96566.56;10149541;29;20127;-52
2023/06/22 22:13:07;;;;;;;7.43;6.45;;;;;;;20.41;68.44;96550.34;10149366;29;20048;-52
2023/06/22 22:18:26;;;;;;;9.00;6.70;;;;;;;20.40;68.41;96521.69;10149160;29;20097;-52
2023/06/22 22:23:47;;;;;;;8.52;6.38;;;;;;;20.40;68.37;96503.53;10148940;29;20401;-51
2023/06/22 22:29:06;;;;;;;9.13;6.18;;;;;;;20.42;68.36;96473.44;10148216;29;20040;-52
2023/06/22 22:34:25;;;;;;;10.80;6.90;;;;;;;20.40;68.37;96440.53;10148583;29;20049;-52
2023/06/22 22:39:45;;;;;;;9.27;6.05;;;;;;;20.41;68.26;96450.22;10148481;29;20040;-53
2023/06/22 22:45:06;;;;;;;9.25;6.38;;;;;;;20.39;68.20;96469.50;10148309;29;20041;-53
2023/06/22 22:50:26;;;;;;;9.40;6.43;;;;;;;20.40;68.26;96481.88;10142618;29;20052;-51
2023/06/22 22:55:45;;;;;;;7.07;6.38;;;;;;;20.40;68.30;96538.69;10148053;29;20063;-53
2023/06/22 23:01:05;;;;;;;7.90;6.50;;;;;;;20.40;68.13;96608.25;10147787;29;20052;-53
2023/06/22 23:06:25;;;;;;;7.63;6.35;;;;;;;20.41;67.95;96672.09;10135120;29;20128;-53
2023/06/22 23:11:44;;;;;;;7.78;5.97;;;;;;;20.40;68.02;96646.94;10147609;29;20501;-53
2023/06/22 23:17:04;;;;;;;7.40;5.80;;;;;;;20.40;68.02;96684.03;10147623;29;20412;-53
2023/06/22 23:22:23;;;;;;;7.10;6.32;;;;;;;20.40;67.90;96705.66;10135053;29;20066;-52
2023/06/22 23:27:43;;;;;;;6.95;6.03;;;;;;;20.39;67.96;96761.72;10147278;29;20048;-52
2023/06/22 23:33:02;;;;;;;7.68;5.85;;;;;;;20.39;67.85;96775.22;10134902;29;20059;-52
2023/06/22 23:38:22;;;;;;;6.30;5.70;;;;;;;20.41;67.77;96747.84;10134692;29;20056;-52
2023/06/22 23:43:42;;;;;;;6.82;5.68;;;;;;;20.39;67.73;96712.22;10154107;29;20049;-52
2023/06/22 23:49:02;;;;;;;7.88;5.72;;;;;;;20.40;67.74;96657.75;10142064;29;20059;-52
2023/06/22 23:54:21;;;;;;;6.68;5.97;;;;;;;20.39;67.77;96660.81;10154484;29;20516;-53
2023/06/22 23:59:46;;;;;;;6.10;5.22;;;;;;;20.38;67.64;96616.72;10127292;29;20044;-52
